Time;durP1;ratioP1;P1;durP2;ratioP2;P2;SDS_P1;SDS_P2;PMS_P1;PMS_P2;Temp;Humidity;BMP_temperature;BMP_pressure;BME280_temperature;BME280_humidity;BME280_pressure;Samples;Min_cycle;Max_cycle;Signal;HPM_P1;HPM_P2
2021/10/23 00:02:10;;;;;;;6.97;6.38;;;;;;;9.41;61.19;100317.03;4850934;28;97434;-77
2021/10/23 00:04:36;;;;;;;6.47;5.90;;;;;;;9.34;61.73;100327.72;4837061;28;97510;-76
2021/10/23 00:07:01;;;;;;;7.10;6.10;;;;;;;9.30;61.63;100333.03;4837391;28;101506;-77
2021/10/23 00:09:27;;;;;;;6.72;5.60;;;;;;;9.20;61.84;100331.59;4854000;28;98036;-79
2021/10/23 00:11:52;;;;;;;6.68;6.05;;;;;;;9.20;61.76;100334.22;4856937;28;97108;-77
2021/10/23 00:14:18;;;;;;;6.05;5.45;;;;;;;9.13;61.82;100337.03;4856648;28;97239;-77
2021/10/23 00:16:44;;;;;;;6.35;5.93;;;;;;;9.13;62.04;100343.13;4841826;28;100717;-77
2021/10/23 00:19:09;;;;;;;6.47;5.85;;;;;;;9.02;62.13;100342.59;4841105;29;97378;-77
2021/10/23 00:21:35;;;;;;;6.18;5.70;;;;;;;9.02;62.53;100340.84;4824897;28;96915;-78
2021/10/23 00:24:01;;;;;;;6.45;5.85;;;;;;;8.90;62.25;100353.38;4840766;29;97295;-78
2021/10/23 00:26:26;;;;;;;6.95;6.07;;;;;;;8.78;62.58;100355.41;4824901;28;102028;-77
2021/10/23 00:28:52;;;;;;;7.25;5.95;;;;;;;8.84;62.52;100357.00;4840860;28;98091;-77
2021/10/23 00:31:18;;;;;;;6.70;5.90;;;;;;;8.80;62.54;100356.22;4844457;29;97187;-77
2021/10/23 00:33:43;;;;;;;6.07;5.57;;;;;;;8.77;62.87;100360.69;4840936;28;97117;-77
2021/10/23 00:36:09;;;;;;;6.18;5.70;;;;;;;8.80;62.50;100361.47;4839951;29;101584;-77
2021/10/23 00:38:34;;;;;;;6.78;5.90;;;;;;;8.84;62.56;100360.50;4837741;29;101289;-76
2021/10/23 00:41:00;;;;;;;7.50;6.40;;;;;;;8.80;62.65;100366.72;4839913;29;96894;-78
2021/10/23 00:43:26;;;;;;;8.02;6.60;;;;;;;8.74;62.79;100368.63;4841483;29;97457;-76
2021/10/23 00:45:51;;;;;;;6.43;5.82;;;;;;;8.71;63.05;100364.34;4856957;28;98418;-77
2021/10/23 00:48:17;;;;;;;6.22;5.63;;;;;;;8.73;62.46;100364.31;4824088;29;101099;-77
2021/10/23 00:50:46;;;;;;;6.63;5.25;;;;;;;8.66;62.92;100354.88;4840359;29;96754;-77
2021/10/23 00:53:13;;;;;;;7.28;5.93;;;;;;;8.71;63.02;100368.72;4851168;28;97392;-77
2021/10/23 00:55:40;;;;;;;6.10;5.60;;;;;;;8.67;62.76;100356.59;4856781;28;97534;-78
2021/10/23 00:58:05;;;;;;;6.20;5.65;;;;;;;8.63;63.10;100368.03;4841446;29;97662;-77
2021/10/23 01:00:31;;;;;;;6.30;5.70;;;;;;;8.64;63.14;100368.03;4855281;28;97317;-77
2021/10/23 01:02:56;;;;;;;8.82;6.30;;;;;;;8.49;63.26;100361.38;4848500;28;97168;-76
2021/10/23 01:05:22;;;;;;;6.53;5.93;;;;;;;8.54;63.31;100366.50;4841895;28;100993;-76
2021/10/23 01:07:49;;;;;;;6.20;5.60;;;;;;;8.53;63.67;100370.91;4840863;29;101460;-77
2021/10/23 01:10:14;;;;;;;6.45;5.78;;;;;;;8.54;63.18;100374.38;4823620;28;96911;-76
2021/10/23 01:12:44;;;;;;;9.18;6.20;;;;;;;8.53;63.74;100364.81;4840804;29;96882;-76
2021/10/23 01:15:27;;;;;;;7.43;5.45;;;;;;;8.43;63.54;100372.00;4854545;28;98195;-77
2021/10/23 01:17:54;;;;;;;7.93;6.28;;;;;;;8.60;62.69;100379.44;4825129;29;100876;-77
2021/10/23 01:20:21;;;;;;;7.57;5.97;;;;;;;8.50;63.54;100372.72;4855410;28;96858;-76
2021/10/23 01:22:48;;;;;;;6.88;5.80;;;;;;;8.57;63.44;100385.59;4839167;29;96883;-76
2021/10/23 01:25:14;;;;;;;7.70;6.00;;;;;;;8.50;63.38;100388.44;4821104;29;101187;-76
2021/10/23 01:27:41;;;;;;;6.78;5.93;;;;;;;8.47;63.50;100397.22;4840379;29;101656;-76
2021/10/23 01:30:09;;;;;;;7.80;6.32;;;;;;;8.48;63.57;100388.44;4838780;29;97306;-77
2021/10/23 01:32:35;;;;;;;7.63;5.95;;;;;;;8.45;63.27;100398.13;4840850;29;97060;-77
2021/10/23 01:35:02;;;;;;;7.47;6.10;;;;;;;8.47;63.57;100405.06;4823780;29;101983;-78
2021/10/23 01:37:57;;;;;;;9.27;6.55;;;;;;;8.41;63.40;100409.56;4855730;28;97364;-76
2021/10/23 01:40:34;;;;;;;7.25;6.28;;;;;;;8.44;63.27;100415.59;4809536;28;96838;-76
2021/10/23 01:43:01;;;;;;;8.70;6.10;;;;;;;8.47;63.17;100425.13;4856119;28;96914;-77
2021/10/23 01:45:27;;;;;;;5.72;4.97;;;;;;;8.43;63.35;100429.56;4823663;28;101984;-77
2021/10/23 01:47:53;;;;;;;7.25;5.65;;;;;;;8.46;63.59;100420.78;4855753;28;98005;-77
2021/10/23 01:50:21;;;;;;;7.85;5.93;;;;;;;8.35;63.55;100421.03;4838736;29;96730;-76
2021/10/23 01:52:48;;;;;;;8.80;6.72;;;;;;;8.34;63.70;100421.91;4839921;29;96919;-76
2021/10/23 01:55:15;;;;;;;11.60;6.53;;;;;;;8.37;63.69;100432.28;4823333;29;101511;-77
2021/10/23 01:57:41;;;;;;;10.45;6.70;;;;;;;8.33;63.88;100435.88;4839836;28;101102;-77
2021/10/23 02:00:08;;;;;;;7.95;6.15;;;;;;;8.36;63.63;100436.66;4823001;29;96913;-77
2021/10/23 02:02:37;;;;;;;10.77;6.03;;;;;;;8.35;64.22;100448.03;4836458;28;97039;-77
2021/10/23 02:05:03;;;;;;;7.78;6.00;;;;;;;8.39;63.74;100447.09;4852887;28;101371;-78
2021/10/23 02:07:28;;;;;;;11.35;6.40;;;;;;;8.32;64.51;100463.78;4848598;28;97918;-76
2021/10/23 02:09:54;;;;;;;8.70;6.07;;;;;;;8.33;64.13;100457.66;4858018;28;97282;-76
2021/10/23 02:12:19;;;;;;;7.35;5.68;;;;;;;8.36;63.83;100470.66;4827199;28;97522;-76
2021/10/23 02:14:46;;;;;;;8.25;6.13;;;;;;;8.33;63.74;100467.25;4831833;28;101179;-76
2021/10/23 02:17:11;;;;;;;7.60;6.70;;;;;;;8.31;63.78;100471.66;4832365;28;100362;-76
2021/10/23 02:19:37;;;;;;;7.90;6.68;;;;;;;8.33;64.16;100473.34;4866709;28;97128;-76
2021/10/23 02:22:03;;;;;;;11.00;6.75;;;;;;;8.30;63.96;100462.09;4861334;28;97138;-77
2021/10/23 02:24:29;;;;;;;6.95;6.35;;;;;;;8.28;64.17;100467.34;4842514;28;98338;-77
2021/10/23 02:26:54;;;;;;;12.07;6.72;;;;;;;8.33;63.72;100469.88;4859538;28;98481;-76
2021/10/23 02:29:20;;;;;;;11.10;6.15;;;;;;;8.32;64.13;100462.91;4871828;28;96710;-76
2021/10/23 02:31:46;;;;;;;8.45;6.22;;;;;;;8.30;63.91;100465.56;4855821;28;97349;-76
2021/10/23 02:34:12;;;;;;;7.18;6.38;;;;;;;8.30;64.10;100472.56;4869410;28;101647;-77
2021/10/23 02:36:37;;;;;;;8.77;6.28;;;;;;;8.22;63.54;100464.03;4853108;29;101297;-76
2021/10/23 02:39:03;;;;;;;9.52;7.65;;;;;;;8.21;63.70;100468.41;4870178;28;97024;-77
2021/10/23 02:41:29;;;;;;;8.20;7.10;;;;;;;8.19;63.70;100472.78;4856778;28;97433;-76
2021/10/23 02:43:56;;;;;;;11.95;6.85;;;;;;;8.19;63.56;100479.78;4873289;28;98615;-76
2021/10/23 02:46:22;;;;;;;9.65;6.38;;;;;;;8.23;63.24;100469.22;4871072;28;97566;-76
2021/10/23 02:48:48;;;;;;;10.73;6.25;;;;;;;8.21;63.44;100473.63;4855855;28;97047;-76
2021/10/23 02:51:14;;;;;;;7.90;6.57;;;;;;;8.22;63.50;100472.72;4869325;28;96813;-77
2021/10/23 02:53:39;;;;;;;10.85;6.53;;;;;;;8.24;63.52;100475.31;4854050;28;101843;-76
2021/10/23 02:56:05;;;;;;;10.57;6.80;;;;;;;8.19;63.44;100483.25;4852150;28;99263;-77
2021/10/23 02:58:31;;;;;;;7.95;6.47;;;;;;;8.20;63.49;100491.94;4850702;28;97422;-76
2021/10/23 03:00:56;;;;;;;10.48;7.40;;;;;;;8.15;63.43;100484.22;4844617;28;97303;-76
2021/10/23 03:03:22;;;;;;;7.55;6.63;;;;;;;8.13;63.42;100486.00;4862346;28;98143;-76
2021/10/23 03:05:48;;;;;;;9.63;6.13;;;;;;;8.12;63.55;100487.75;4863143;28;97440;-77
2021/10/23 03:08:15;;;;;;;10.63;6.80;;;;;;;8.15;63.08;100494.69;4842565;28;97091;-77
2021/10/23 03:10:42;;;;;;;9.25;6.80;;;;;;;8.12;63.21;100495.59;4827502;29;97351;-76
2021/10/23 03:13:07;;;;;;;11.23;6.40;;;;;;;8.10;63.52;100494.75;4834449;28;101333;-76
2021/10/23 03:15:33;;;;;;;8.40;6.80;;;;;;;8.07;63.51;100501.81;4843394;28;97372;-76
2021/10/23 03:17:59;;;;;;;10.57;7.60;;;;;;;8.08;63.22;100501.78;4841695;28;97138;-76
2021/10/23 03:20:25;;;;;;;7.75;6.85;;;;;;;8.09;63.26;100495.69;4837591;28;97632;-76
2021/10/23 03:22:51;;;;;;;10.73;7.10;;;;;;;8.11;62.53;100501.72;4853007;29;97982;-76
2021/10/23 03:25:17;;;;;;;7.82;6.85;;;;;;;8.07;62.96;100509.66;4839656;28;101425;-77
2021/10/23 03:27:42;;;;;;;8.30;7.20;;;;;;;8.10;63.04;100517.44;4854238;28;96747;-76
2021/10/23 03:30:08;;;;;;;10.95;7.38;;;;;;;8.01;63.30;100501.94;4866196;28;96880;-76
2021/10/23 03:32:34;;;;;;;12.23;7.10;;;;;;;8.02;63.10;100512.38;4840791;28;101073;-77
2021/10/23 03:35:00;;;;;;;8.05;6.55;;;;;;;8.02;62.76;100506.28;4856997;28;100596;-76
2021/10/23 03:37:28;;;;;;;7.88;6.43;;;;;;;7.98;62.84;100509.84;4851628;29;96736;-76
2021/10/23 03:39:54;;;;;;;12.60;6.75;;;;;;;8.01;63.26;100515.03;4843198;28;98627;-76
2021/10/23 03:42:20;;;;;;;10.10;6.60;;;;;;;7.94;63.47;100512.53;4842604;28;100453;-76
2021/10/23 03:44:46;;;;;;;10.10;7.05;;;;;;;8.00;62.52;100519.41;4829154;28;101308;-76
2021/10/23 03:47:12;;;;;;;10.15;7.38;;;;;;;8.00;63.36;100521.13;4847825;28;97197;-76
2021/10/23 03:49:40;;;;;;;12.52;7.13;;;;;;;7.99;63.19;100519.41;4834418;28;96872;-79
2021/10/23 03:52:06;;;;;;;10.30;6.78;;;;;;;7.96;63.18;100538.63;4869915;28;101435;-78
2021/10/23 03:54:32;;;;;;;8.07;7.15;;;;;;;7.91;63.13;100525.66;4874277;28;101487;-76
2021/10/23 03:56:57;;;;;;;11.13;7.57;;;;;;;7.88;63.20;100536.19;4845748;28;97350;-76
2021/10/23 03:59:23;;;;;;;9.32;7.05;;;;;;;7.90;63.00;100536.13;4845150;28;98368;-76
2021/10/23 04:01:48;;;;;;;10.38;7.45;;;;;;;7.76;63.11;100519.88;4852322;28;101247;-76
2021/10/23 04:04:14;;;;;;;9.13;6.85;;;;;;;7.90;63.43;100550.06;4856877;28;101299;-76
2021/10/23 04:06:40;;;;;;;14.63;7.78;;;;;;;7.87;63.40;100549.28;4836972;28;97278;-76
2021/10/23 04:09:06;;;;;;;12.25;7.28;;;;;;;7.85;63.23;100551.94;4871019;28;97617;-79
2021/10/23 04:11:31;;;;;;;16.55;8.68;;;;;;;7.85;63.07;100558.88;4872839;28;97577;-76
2021/10/23 04:13:57;;;;;;;10.57;7.13;;;;;;;7.84;63.11;100559.78;4871358;28;97467;-76
2021/10/23 04:16:22;;;;;;;12.63;6.55;;;;;;;7.86;63.30;100564.09;4844122;28;96701;-77
2021/10/23 04:18:48;;;;;;;9.60;7.30;;;;;;;7.82;63.66;100572.88;4835462;29;96904;-76
2021/10/23 04:21:15;;;;;;;9.18;7.32;;;;;;;7.83;63.36;100568.53;4864566;28;98314;-77
2021/10/23 04:23:41;;;;;;;14.52;7.97;;;;;;;7.77;63.57;100577.34;4867478;28;97901;-77
2021/10/23 04:26:06;;;;;;;13.68;8.18;;;;;;;7.76;63.58;100573.00;4848181;28;97371;-79
2021/10/23 04:28:32;;;;;;;11.63;7.25;;;;;;;7.77;63.89;100577.34;4831333;29;97299;-77
2021/10/23 04:30:58;;;;;;;14.00;7.43;;;;;;;7.68;63.54;100557.47;4844103;28;100872;-77
2021/10/23 04:33:23;;;;;;;10.88;7.20;;;;;;;7.74;63.93;100577.41;4830865;28;101213;-76
2021/10/23 04:35:50;;;;;;;14.75;7.65;;;;;;;7.72;63.84;100579.16;4857059;28;97153;-76
2021/10/23 04:38:17;;;;;;;9.00;7.50;;;;;;;7.63;63.80;100564.53;4852743;28;96868;-76
2021/10/23 04:40:42;;;;;;;12.30;7.18;;;;;;;7.70;63.83;100581.78;4846817;28;101161;-76
2021/10/23 04:43:08;;;;;;;17.13;7.40;;;;;;;7.62;63.87;100572.38;4847175;28;97400;-78
2021/10/23 04:45:33;;;;;;;10.90;7.72;;;;;;;7.72;63.89;100589.63;4846437;28;97215;-77
2021/10/23 04:48:00;;;;;;;11.25;6.82;;;;;;;7.68;64.04;100577.53;4834247;28;97479;-77
2021/10/23 04:50:26;;;;;;;16.25;8.20;;;;;;;7.66;63.77;100584.50;4834116;28;101831;-76
2021/10/23 04:52:52;;;;;;;9.00;6.90;;;;;;;7.67;64.09;100574.00;4851942;28;98370;-77
2021/10/23 04:55:17;;;;;;;15.25;7.35;;;;;;;7.66;63.96;100585.38;4864194;28;97203;-76
2021/10/23 04:57:43;;;;;;;12.35;6.85;;;;;;;7.68;64.11;100590.59;4830156;28;97395;-77
2021/10/23 05:00:09;;;;;;;14.40;7.70;;;;;;;7.67;64.01;100589.69;4846350;28;101133;-77
2021/10/23 05:02:34;;;;;;;16.13;8.05;;;;;;;7.58;64.21;100587.25;4858621;28;101544;-76
2021/10/23 05:05:00;;;;;;;15.10;7.80;;;;;;;7.57;64.29;100590.75;4861790;28;97402;-77
2021/10/23 05:07:25;;;;;;;9.27;7.43;;;;;;;7.57;64.33;100598.59;4850805;28;97388;-77
2021/10/23 05:09:51;;;;;;;13.30;7.50;;;;;;;7.62;64.03;100591.56;4865307;28;101257;-76
2021/10/23 05:12:16;;;;;;;15.90;7.97;;;;;;;7.57;64.09;100587.28;4830252;29;101976;-77
2021/10/23 05:14:42;;;;;;;8.45;7.32;;;;;;;7.58;63.58;100592.47;4877442;28;96992;-77
2021/10/23 05:17:08;;;;;;;11.55;7.78;;;;;;;7.60;64.14;100606.38;4830872;28;97044;-78
2021/10/23 05:19:33;;;;;;;10.57;7.55;;;;;;;7.56;63.91;100607.31;4844848;28;98477;-76
2021/10/23 05:21:59;;;;;;;9.93;8.05;;;;;;;7.51;64.11;100590.88;4854074;28;96837;-76
2021/10/23 05:24:27;;;;;;;15.65;8.70;;;;;;;7.52;64.24;100612.63;4844644;28;97143;-77
2021/10/23 05:26:52;;;;;;;12.70;8.85;;;;;;;7.54;64.30;100614.31;4852843;28;96946;-76
2021/10/23 05:29:18;;;;;;;17.75;7.95;;;;;;;7.53;63.95;100607.34;4845635;28;98065;-77
2021/10/23 05:31:44;;;;;;;12.40;8.05;;;;;;;7.59;64.40;100609.91;4848185;28;101317;-76
2021/10/23 05:34:09;;;;;;;9.32;7.90;;;;;;;7.53;64.25;100603.88;4872742;28;96815;-77
2021/10/23 05:36:35;;;;;;;10.77;7.40;;;;;;;7.55;64.56;100620.41;4856269;28;97000;-76
2021/10/23 05:39:00;;;;;;;11.07;7.63;;;;;;;7.61;64.10;100621.16;4845930;28;101822;-77
2021/10/23 05:41:26;;;;;;;8.75;7.80;;;;;;;7.63;64.21;100626.38;4851604;28;97327;-77
2021/10/23 05:43:51;;;;;;;13.88;8.35;;;;;;;7.61;64.46;100623.78;4855577;28;97388;-78
2021/10/23 05:46:17;;;;;;;15.98;8.65;;;;;;;7.62;63.93;100642.91;4851210;28;97383;-77
2021/10/23 05:48:43;;;;;;;14.73;8.82;;;;;;;7.64;64.47;100639.41;4857697;28;97202;-76
2021/10/23 05:51:09;;;;;;;11.93;8.55;;;;;;;7.68;64.32;100635.00;4849262;28;97635;-77
2021/10/23 05:53:34;;;;;;;11.40;8.60;;;;;;;7.62;64.22;100640.31;4843206;28;96889;-77
2021/10/23 05:56:00;;;;;;;18.58;9.40;;;;;;;7.71;64.07;100655.84;4838932;28;97035;-76
2021/10/23 05:58:30;;;;;;;13.98;7.90;;;;;;;7.73;63.86;100659.28;4837863;28;100943;-77
2021/10/23 06:01:00;;;;;;;11.38;7.68;;;;;;;7.70;63.95;100652.34;4854904;28;97430;-77
2021/10/23 06:03:26;;;;;;;10.15;7.63;;;;;;;7.83;63.92;100662.63;4841935;28;97225;-77
2021/10/23 06:05:52;;;;;;;14.80;8.25;;;;;;;7.84;64.06;100665.19;4842133;28;97053;-77
2021/10/23 06:08:18;;;;;;;14.18;7.47;;;;;;;7.89;63.47;100668.59;4856496;28;101186;-77
2021/10/23 06:10:43;;;;;;;11.20;7.63;;;;;;;7.88;63.88;100661.66;4852484;28;101716;-76
2021/10/23 06:13:11;;;;;;;12.13;6.78;;;;;;;7.99;63.21;100673.66;4826684;28;96998;-77
2021/10/23 06:15:36;;;;;;;13.48;7.85;;;;;;;8.12;63.09;100662.09;4854296;28;97331;-76
2021/10/23 06:18:03;;;;;;;11.35;6.72;;;;;;;8.15;63.25;100665.50;4839745;28;100065;-77
2021/10/23 06:20:29;;;;;;;13.10;6.88;;;;;;;8.15;63.24;100690.81;4873341;28;97485;-77
2021/10/23 06:22:55;;;;;;;15.15;6.45;;;;;;;8.24;63.13;100690.63;4851066;28;96929;-78
2021/10/23 06:25:22;;;;;;;14.52;6.47;;;;;;;8.31;62.75;100688.75;4840697;28;96988;-77
2021/10/23 06:27:48;;;;;;;7.68;6.45;;;;;;;8.42;62.36;100696.44;4865916;28;98001;-77
2021/10/23 06:30:15;;;;;;;10.82;6.65;;;;;;;8.40;62.40;100696.47;4835591;28;101530;-78
2021/10/23 06:32:48;;;;;;;10.13;6.75;;;;;;;8.50;62.15;100699.78;4839539;28;97222;-77
2021/10/23 06:35:14;;;;;;;8.23;7.22;;;;;;;8.52;62.46;100700.59;4825133;28;97208;-78
2021/10/23 06:37:40;;;;;;;11.13;6.38;;;;;;;8.64;61.80;100703.00;4832078;28;102085;-77
2021/10/23 06:40:07;;;;;;;13.88;6.97;;;;;;;8.67;61.61;100705.53;4859766;28;97350;-78
2021/10/23 06:42:32;;;;;;;12.80;6.60;;;;;;;8.70;61.72;100720.31;4857283;28;97325;-79
2021/10/23 06:44:58;;;;;;;9.05;6.15;;;;;;;8.77;61.75;100708.81;4862913;28;97093;-78
2021/10/23 06:47:23;;;;;;;11.15;6.18;;;;;;;8.86;61.54;100711.25;4852761;28;101145;-79
2021/10/23 06:49:51;;;;;;;11.27;6.93;;;;;;;8.91;61.30;100714.66;4824921;28;101381;-77
2021/10/23 06:52:17;;;;;;;14.85;7.45;;;;;;;9.40;60.82;100726.66;4864475;28;98075;-78
2021/10/23 06:54:42;;;;;;;11.60;7.55;;;;;;;10.09;58.20;100726.75;4846461;28;96994;-79
2021/10/23 06:57:08;;;;;;;12.35;7.03;;;;;;;10.55;57.53;100721.16;4830725;28;101392;-78
2021/10/23 06:59:34;;;;;;;11.63;7.07;;;;;;;11.05;56.31;100707.50;4833043;28;97929;-79
2021/10/23 07:01:59;;;;;;;14.38;6.95;;;;;;;11.44;55.17;100709.84;4855223;28;96834;-78
2021/10/23 07:04:25;;;;;;;13.60;7.50;;;;;;;11.79;54.01;100709.56;4817585;28;97012;-79
2021/10/23 07:06:51;;;;;;;10.63;6.38;;;;;;;12.21;53.63;100732.72;4866095;28;101176;-79
2021/10/23 07:09:18;;;;;;;9.52;6.75;;;;;;;12.43;52.34;100735.47;4821915;28;101026;-80
2021/10/23 07:11:44;;;;;;;11.93;7.10;;;;;;;12.73;52.29;100734.44;4849139;28;98742;-79
2021/10/23 07:14:10;;;;;;;15.13;7.85;;;;;;;12.97;51.25;100741.44;4847682;28;98409;-79
2021/10/23 07:16:35;;;;;;;12.32;6.88;;;;;;;13.18;50.79;100747.69;4829684;28;100878;-78
2021/10/23 07:19:01;;;;;;;13.30;7.05;;;;;;;13.56;50.75;100737.47;4858267;28;98478;-79
2021/10/23 07:21:27;;;;;;;17.40;7.95;;;;;;;13.93;49.20;100746.50;4853647;28;98634;-78
2021/10/23 07:23:53;;;;;;;10.48;6.28;;;;;;;14.09;48.72;100750.25;4867790;28;97041;-78
2021/10/23 07:26:22;;;;;;;14.52;7.72;;;;;;;14.46;47.81;100762.75;4867310;28;98060;-79
2021/10/23 07:28:47;;;;;;;13.80;7.47;;;;;;;14.77;47.54;100748.22;4869339;28;101088;-89
2021/10/23 07:31:13;;;;;;;8.75;6.47;;;;;;;14.97;47.07;100741.19;4858075;28;96845;-91
2021/10/23 07:33:39;;;;;;;11.35;7.38;;;;;;;15.08;46.46;100744.19;4854695;28;96834;-96
2021/10/23 07:36:05;;;;;;;11.82;7.97;;;;;;;15.39;45.92;100739.19;4877298;28;99775;-86
2021/10/23 07:38:31;;;;;;;10.98;7.30;;;;;;;15.70;45.28;100744.81;4829265;28;98755;-94
2021/10/23 07:40:57;;;;;;;13.27;7.72;;;;;;;16.09;44.03;100757.91;4841123;28;97462;-90
2021/10/23 07:43:23;;;;;;;11.65;5.65;;;;;;;16.58;43.01;100766.00;4853517;28;97382;-84
2021/10/23 07:45:49;;;;;;;20.27;9.15;;;;;;;17.27;41.75;100758.81;4854150;28;97336;-87
2021/10/23 07:48:18;;;;;;;13.95;7.25;;;;;;;18.28;39.68;100759.25;4856646;28;98721;-88
2021/10/23 07:50:50;;;;;;;11.80;7.57;;;;;;;19.21;38.96;100767.81;4858276;28;99643;-87
2021/10/23 07:53:16;;;;;;;;;;;;;;;20.05;37.24;100762.38;4867526;28;97392;-88
2021/10/23 07:55:41;;;;;;;10.15;8.23;;;;;;;20.45;36.46;100757.03;4872443;28;97629;-82
2021/10/23 07:58:07;;;;;;;11.35;7.45;;;;;;;18.42;39.12;100762.91;4869346;28;98082;-83
2021/10/23 08:00:33;;;;;;;12.40;8.07;;;;;;;20.29;36.88;100761.69;4843491;28;97353;-83
2021/10/23 08:02:59;;;;;;;14.75;8.27;;;;;;;20.08;36.47;100771.97;4844493;28;97015;-84
2021/10/23 08:05:26;;;;;;;14.70;8.65;;;;;;;19.80;36.36;100749.81;4848449;28;97752;-86
2021/10/23 08:07:53;;;;;;;14.75;8.35;;;;;;;20.73;35.57;100766.66;4846880;28;101916;-86
2021/10/23 08:10:19;;;;;;;10.35;7.78;;;;;;;20.87;34.52;100756.84;4870896;28;96875;-86
2021/10/23 08:12:45;;;;;;;12.13;8.10;;;;;;;19.56;36.79;100767.38;4864916;28;98218;-89
2021/10/23 08:15:12;;;;;;;8.75;6.15;;;;;;;19.06;37.87;100772.28;4846716;28;101168;-88
2021/10/23 08:17:37;;;;;;;10.63;6.80;;;;;;;18.58;38.60;100779.63;4836360;28;100222;-89
2021/10/23 08:20:06;;;;;;;13.93;7.22;;;;;;;19.03;38.06;100769.81;4836344;28;97431;-86
2021/10/23 08:22:31;;;;;;;12.35;8.70;;;;;;;19.46;37.51;100783.09;4854478;28;97280;-88
2021/10/23 08:24:57;;;;;;;12.48;8.25;;;;;;;18.81;37.80;100796.88;4856614;28;101875;-85
2021/10/23 08:27:22;;;;;;;9.05;7.05;;;;;;;19.57;36.95;100780.56;4848157;28;98051;-88
2021/10/23 08:29:48;;;;;;;13.27;7.28;;;;;;;19.90;36.63;100790.88;4850137;28;97425;-87
2021/10/23 08:32:15;;;;;;;12.88;7.75;;;;;;;20.89;34.93;100797.63;4848386;28;96877;-86
2021/10/23 08:34:42;;;;;;;8.57;7.68;;;;;;;23.00;31.92;100794.50;4862777;28;97550;-88
2021/10/23 08:37:08;;;;;;;13.20;8.50;;;;;;;22.57;32.39;100809.41;4834633;28;99787;-86
2021/10/23 08:39:34;;;;;;;10.40;8.18;;;;;;;21.52;33.69;100806.53;4855228;28;96795;-89
2021/10/23 08:41:59;;;;;;;10.10;8.10;;;;;;;22.83;32.38;100807.38;4846429;28;96907;-88
2021/10/23 08:44:26;;;;;;;10.85;8.05;;;;;;;21.86;33.45;100792.41;4840679;28;100626;-88
2021/10/23 08:46:52;;;;;;;11.80;8.20;;;;;;;19.72;35.97;100799.22;4850587;28;98012;-88
2021/10/23 08:49:18;;;;;;;12.50;8.27;;;;;;;19.95;35.68;100803.88;4844682;28;96791;-88
2021/10/23 08:51:44;;;;;;;11.20;8.20;;;;;;;20.12;36.70;100813.44;4853833;28;97011;-87
2021/10/23 08:54:12;;;;;;;9.70;7.80;;;;;;;19.12;37.69;100808.31;4834405;28;101903;-88
2021/10/23 08:56:38;;;;;;;22.05;9.98;;;;;;;18.74;38.86;100827.47;4851053;28;101367;-86
2021/10/23 08:59:03;;;;;;;7.80;6.70;;;;;;;18.91;37.95;100824.63;4860834;28;98125;-89
2021/10/23 09:01:29;;;;;;;8.38;7.53;;;;;;;19.44;36.94;100817.78;4860106;28;97027;-88
2021/10/23 09:03:55;;;;;;;7.68;6.90;;;;;;;20.85;35.09;100826.31;4858054;28;97558;-88
2021/10/23 09:06:36;;;;;;;11.63;7.80;;;;;;;19.37;36.12;100835.09;4825285;29;101091;-88
2021/10/23 09:09:02;;;;;;;9.13;6.70;;;;;;;18.05;38.84;100834.97;4856679;28;98442;-88
2021/10/23 09:11:35;;;;;;;14.35;7.93;;;;;;;19.30;36.92;100836.41;4856162;29;97252;-89
2021/10/23 09:14:22;;;;;;;11.48;7.03;;;;;;;19.43;36.59;100850.69;4838108;29;100279;-88
2021/10/23 09:16:58;;;;;;;12.30;7.63;;;;;;;18.49;38.37;100847.47;4837953;29;97369;-91
2021/10/23 09:19:31;;;;;;;10.25;7.72;;;;;;;17.47;39.74;100847.94;4825133;28;97258;-91
2021/10/23 09:21:57;;;;;;;11.60;8.52;;;;;;;17.53;40.26;100856.44;4851908;28;96805;-91
2021/10/23 09:24:23;;;;;;;13.55;8.52;;;;;;;17.36;40.50;100864.44;4834556;29;100219;-89
2021/10/23 09:26:50;;;;;;;11.88;7.78;;;;;;;16.70;41.58;100860.78;4839875;29;97859;-90
2021/10/23 09:29:23;;;;;;;12.20;7.35;;;;;;;16.29;42.93;100876.09;4837951;29;97313;-91
2021/10/23 09:31:49;;;;;;;13.35;7.72;;;;;;;16.15;42.90;100874.13;4824411;28;97084;-88
2021/10/23 09:34:16;;;;;;;11.57;7.82;;;;;;;15.95;43.25;100882.16;4851431;28;98061;-84
2021/10/23 09:36:49;;;;;;;9.80;8.32;;;;;;;17.06;41.57;100883.69;4837948;28;97267;-85
2021/10/23 09:39:25;;;;;;;12.43;7.38;;;;;;;16.50;42.06;100879.47;4859245;28;97354;-89
2021/10/23 09:42:16;;;;;;;11.93;7.82;;;;;;;16.25;42.28;100874.50;4853440;28;97258;-88
2021/10/23 09:45:04;;;;;;;12.18;8.15;;;;;;;16.37;42.62;100878.34;4837984;28;100525;-87
2021/10/23 09:47:41;;;;;;;14.50;7.68;;;;;;;16.21;42.54;100878.25;4820764;28;101642;-88
2021/10/23 09:50:16;;;;;;;8.75;7.72;;;;;;;16.53;42.70;100881.97;4851061;28;97219;-88
2021/10/23 09:53:09;;;;;;;13.68;7.82;;;;;;;16.98;41.72;100881.44;4853121;28;97948;-84
2021/10/23 09:55:52;;;;;;;9.38;7.05;;;;;;;16.86;42.30;100883.88;4831369;28;101713;-85
2021/10/23 09:58:17;;;;;;;12.80;7.10;;;;;;;17.24;41.72;100891.63;4835605;29;98228;-84
2021/10/23 10:00:44;;;;;;;12.48;8.05;;;;;;;16.25;43.11;100891.25;4836227;28;96856;-85
2021/10/23 10:03:11;;;;;;;11.98;7.70;;;;;;;15.87;43.86;100893.09;4852405;28;96899;-85
2021/10/23 10:05:37;;;;;;;13.35;7.80;;;;;;;15.38;44.55;100901.47;4820561;28;101053;-85
2021/10/23 10:08:13;;;;;;;11.48;7.70;;;;;;;14.81;45.62;100897.81;4820880;29;101202;-86
2021/10/23 10:10:42;;;;;;;17.15;7.90;;;;;;;14.55;46.56;100908.63;4853240;28;97376;-86
2021/10/23 10:13:10;;;;;;;15.57;8.75;;;;;;;14.22;46.69;100909.88;4822086;29;97911;-86
2021/10/23 10:15:38;;;;;;;14.90;7.75;;;;;;;14.15;46.73;100908.38;4821278;29;101720;-87
2021/10/23 10:18:05;;;;;;;15.75;8.23;;;;;;;14.56;45.90;100919.09;4854114;28;98127;-86
2021/10/23 10:20:33;;;;;;;13.80;8.50;;;;;;;14.18;46.95;100913.56;4834939;29;97957;-86
2021/10/23 10:22:59;;;;;;;10.73;7.90;;;;;;;14.04;47.63;100913.22;4836991;29;96915;-87
2021/10/23 10:25:25;;;;;;;11.57;8.23;;;;;;;13.92;48.00;100911.94;4820258;28;101545;-87
2021/10/23 10:27:53;;;;;;;16.27;9.73;;;;;;;13.87;48.10;100916.50;4840094;29;101566;-87
2021/10/23 10:30:35;;;;;;;12.25;8.02;;;;;;;13.79;47.46;100926.53;4837961;28;97224;-87
2021/10/23 10:33:16;;;;;;;12.20;7.30;;;;;;;13.67;47.96;100922.56;4820194;28;97483;-86
2021/10/23 10:35:57;;;;;;;11.68;7.93;;;;;;;13.77;47.53;100916.00;4853565;28;101472;-86
2021/10/23 10:44:10;;;;;;;13.23;7.63;;;;;;;14.45;46.25;100942.41;4853434;28;98172;-85
2021/10/23 10:46:54;;;;;;;9.05;6.72;;;;;;;14.37;45.82;100939.22;4838131;29;97763;-85
2021/10/23 10:49:54;;;;;;;13.25;6.93;;;;;;;14.32;46.78;100939.41;4826273;29;100591;-84
2021/10/23 10:52:38;;;;;;;14.00;8.07;;;;;;;14.31;47.04;100939.47;4850857;28;97298;-86
2021/10/23 10:55:11;;;;;;;12.10;6.47;;;;;;;14.11;46.88;100945.50;4854483;28;97350;-96
2021/10/23 10:57:55;;;;;;;13.50;7.47;;;;;;;13.79;47.24;100934.44;4854917;28;102235;-85
2021/10/23 11:00:21;;;;;;;11.50;7.55;;;;;;;13.72;47.79;100941.69;4832154;29;103372;-86
2021/10/23 11:02:47;;;;;;;10.75;6.97;;;;;;;13.65;47.21;100945.50;4840852;28;97181;-86
2021/10/23 11:05:20;;;;;;;12.45;7.72;;;;;;;13.81;47.31;100941.34;4838379;28;98857;-83
2021/10/23 11:08:06;;;;;;;16.30;7.28;;;;;;;13.87;46.89;100942.03;4836359;29;101824;-86
2021/10/23 11:10:57;;;;;;;10.25;6.85;;;;;;;13.78;47.00;100944.09;4824869;28;101177;-83
2021/10/23 11:13:27;;;;;;;10.63;7.07;;;;;;;13.63;47.80;100943.84;4854277;28;97468;-90
2021/10/23 11:15:53;;;;;;;13.10;6.93;;;;;;;13.73;47.93;100942.56;4838462;28;98382;-81
2021/10/23 11:18:20;;;;;;;11.25;7.13;;;;;;;13.69;48.56;100947.09;4824600;28;101498;-84
2021/10/23 11:20:45;;;;;;;10.73;6.75;;;;;;;13.54;47.94;100945.88;4827743;28;101503;-96
2021/10/23 11:23:21;;;;;;;11.90;6.72;;;;;;;13.57;47.70;100947.56;4863326;28;97232;-92
2021/10/23 11:25:49;;;;;;;9.45;6.70;;;;;;;13.54;47.77;100945.88;4826209;28;96918;-84
2021/10/23 11:28:14;;;;;;;10.95;7.35;;;;;;;13.44;47.99;100948.91;4854436;28;101766;-95
2021/10/23 11:30:42;;;;;;;10.88;6.70;;;;;;;13.49;47.63;100950.44;4859682;28;100145;-95